Time;durP1;ratioP1;P1;durP2;ratioP2;P2;SDS_P1;SDS_P2;PMS_P1;PMS_P2;Temp;Humidity;BMP_temperature;BMP_pressure;BME280_temperature;BME280_humidity;BME280_pressure;Samples;Min_cycle;Max_cycle;Signal;HPM_P1;HPM_P2
2023/02/21 02:15:26;;;;;;;8.33;7.50;;;10.00;99.90;;;;;;5072889;28;20582;-59
2023/02/21 02:18:09;;;;;;;8.97;8.07;;;10.00;99.90;;;;;;5072883;28;20497;-59
2023/02/21 02:20:59;;;;;;;8.90;8.10;;;10.00;99.90;;;;;;5072795;28;20451;-59
2023/02/21 02:23:44;;;;;;;7.93;7.13;;;10.00;99.90;;;;;;5072605;28;20447;-59
2023/02/21 02:26:50;;;;;;;8.13;7.37;;;10.00;99.90;;;;;;5072741;28;20444;-58
2023/02/21 02:29:37;;;;;;;8.93;7.30;;;10.00;99.90;;;;;;5072485;28;20479;-60
2023/02/21 02:32:26;;;;;;;8.63;7.77;;;10.10;99.90;;;;;;5073008;28;20452;-59
2023/02/21 02:35:02;;;;;;;7.80;7.10;;;10.10;99.90;;;;;;5072868;28;20538;-59
2023/02/21 02:37:33;;;;;;;10.03;8.57;;;10.10;99.90;;;;;;5072591;28;20450;-58
2023/02/21 02:40:05;;;;;;;7.80;7.10;;;10.20;99.90;;;;;;5072447;28;20802;-58
2023/02/21 02:42:40;;;;;;;8.37;7.07;;;10.10;99.90;;;;;;5072435;28;20542;-59
2023/02/21 02:45:13;;;;;;;7.27;6.57;;;10.10;99.90;;;;;;5072552;28;20540;-59
2023/02/21 02:47:43;;;;;;;8.87;7.33;;;10.20;99.90;;;;;;5072475;28;20444;-58
2023/02/21 02:50:12;;;;;;;8.77;7.50;;;10.20;99.90;;;;;;5072206;28;20484;-59
2023/02/21 02:52:50;;;;;;;7.93;7.13;;;10.30;99.90;;;;;;5072585;28;20459;-59
2023/02/21 02:55:33;;;;;;;8.00;7.27;;;10.30;99.90;;;;;;5076189;28;20546;-58
2023/02/21 02:58:00;;;;;;;7.33;6.70;;;10.30;99.90;;;;;;5076124;28;20458;-58
2023/02/21 03:00:28;;;;;;;7.47;6.77;;;10.30;99.90;;;;;;5076031;28;20546;-58
2023/02/21 03:03:35;;;;;;;8.70;7.80;;;10.30;99.90;;;;;;5075845;28;20454;-58
2023/02/21 03:06:15;;;;;;;7.80;6.97;;;10.30;99.90;;;;;;5033776;28;20449;-58
2023/02/21 03:08:51;;;;;;;8.27;7.00;;;10.30;99.90;;;;;;5033912;28;20487;-58
2023/02/21 03:11:19;;;;;;;7.50;6.90;;;10.40;99.90;;;;;;5058475;28;20803;-59
2023/02/21 03:13:50;;;;;;;9.40;8.20;;;10.40;99.90;;;;;;5075936;28;20803;-59
2023/02/21 03:16:24;;;;;;;9.10;7.60;;;10.40;99.90;;;;;;5075865;28;20451;-59
2023/02/21 03:18:56;;;;;;;9.00;8.10;;;10.30;99.90;;;;;;5075647;28;21034;-59
2023/02/21 03:21:28;;;;;;;9.27;7.70;;;10.40;99.90;;;;;;5075559;28;20539;-60
2023/02/21 03:23:58;;;;;;;7.83;7.07;;;10.40;99.90;;;;;;5075804;28;20803;-59
2023/02/21 03:26:27;;;;;;;7.87;7.10;;;10.30;99.90;;;;;;5075725;28;20448;-59
2023/02/21 03:28:54;;;;;;;8.97;7.93;;;10.40;99.90;;;;;;5075776;28;20472;-59
2023/02/21 03:31:28;;;;;;;9.23;8.30;;;10.30;99.90;;;;;;5075510;28;20455;-59
2023/02/21 03:33:54;;;;;;;8.60;7.53;;;10.30;99.90;;;;;;5075224;28;20539;-59
2023/02/21 03:36:21;;;;;;;9.03;6.83;;;10.40;99.90;;;;;;5075588;28;20601;-59
2023/02/21 03:38:49;;;;;;;7.80;7.00;;;10.40;99.90;;;;;;5075527;28;20458;-59
2023/02/21 03:41:16;;;;;;;8.07;7.27;;;10.40;99.90;;;;;;5075371;28;20538;-59
2023/02/21 03:43:42;;;;;;;7.53;6.53;;;10.40;99.90;;;;;;5075251;28;20448;-59
2023/02/21 03:46:09;;;;;;;8.10;7.40;;;10.50;99.90;;;;;;5075265;28;20538;-59
2023/02/21 03:48:35;;;;;;;7.70;6.97;;;10.50;99.90;;;;;;5074961;28;20448;-59
2023/02/21 03:51:02;;;;;;;7.97;7.17;;;10.50;99.90;;;;;;5075164;28;20470;-59
2023/02/21 03:53:29;;;;;;;8.57;7.67;;;10.60;99.90;;;;;;5075150;28;20539;-59
2023/02/21 03:55:57;;;;;;;9.00;7.53;;;10.60;99.90;;;;;;5075107;28;20447;-59
2023/02/21 03:58:23;;;;;;;8.43;6.90;;;10.60;99.90;;;;;;5075063;28;20454;-59
2023/02/21 04:00:50;;;;;;;8.57;7.27;;;10.60;99.90;;;;;;5074977;28;20447;-59
2023/02/21 04:03:16;;;;;;;6.63;6.00;;;10.60;99.90;;;;;;5074820;28;20444;-59
2023/02/21 04:05:43;;;;;;;7.37;6.67;;;10.60;99.90;;;;;;5073927;28;20455;-59
2023/02/21 04:08:10;;;;;;;10.00;7.20;;;10.60;99.90;;;;;;5074909;28;20451;-59
2023/02/21 04:10:36;;;;;;;7.20;6.50;;;10.60;99.90;;;;;;5074767;28;20488;-59
2023/02/21 04:13:06;;;;;;;8.97;7.37;;;10.60;99.90;;;;;;5074569;28;20486;-59
2023/02/21 04:15:32;;;;;;;7.83;7.03;;;10.60;99.90;;;;;;5074636;28;20534;-60
2023/02/21 04:17:59;;;;;;;8.03;7.23;;;10.60;99.90;;;;;;5074546;28;20444;-59
2023/02/21 04:20:25;;;;;;;7.77;6.93;;;10.60;99.90;;;;;;5074771;28;20448;-59
2023/02/21 04:22:52;;;;;;;8.23;6.90;;;10.60;99.90;;;;;;5074499;28;20447;-59
2023/02/21 04:25:18;;;;;;;8.53;7.73;;;10.60;99.90;;;;;;5074349;28;20777;-59
2023/02/21 04:27:45;;;;;;;8.30;7.43;;;10.60;99.90;;;;;;5074190;28;20798;-59
2023/02/21 04:30:13;;;;;;;8.67;7.20;;;10.60;99.90;;;;;;5074107;28;20515;-59
2023/02/21 04:32:39;;;;;;;8.77;7.77;;;10.60;99.90;;;;;;5074071;28;20443;-59
2023/02/21 04:35:06;;;;;;;8.23;7.27;;;10.70;99.90;;;;;;5074146;28;20443;-59
2023/02/21 04:37:32;;;;;;;8.03;7.17;;;10.70;99.90;;;;;;5074176;28;20539;-59
2023/02/21 04:39:59;;;;;;;9.10;7.00;;;10.70;99.90;;;;;;5074142;28;20470;-59
2023/02/21 04:42:25;;;;;;;8.80;7.97;;;10.80;99.90;;;;;;5074059;28;20470;-59
2023/02/21 04:44:52;;;;;;;8.77;7.87;;;10.70;99.90;;;;;;5073937;28;20803;-59
2023/02/21 04:47:20;;;;;;;10.17;7.93;;;10.70;99.90;;;;;;5074138;28;20443;-59
2023/02/21 04:49:50;;;;;;;7.50;6.80;;;10.80;99.90;;;;;;5074111;28;20475;-59
2023/02/21 04:52:18;;;;;;;8.63;7.50;;;10.80;99.90;;;;;;5074017;28;20447;-59
2023/02/21 04:54:45;;;;;;;9.10;8.10;;;10.80;99.90;;;;;;5073735;28;20471;-59
2023/02/21 04:57:12;;;;;;;8.47;7.57;;;10.80;99.90;;;;;;5073689;28;20934;-60
2023/02/21 04:59:38;;;;;;;8.60;7.63;;;10.80;99.90;;;;;;5073930;28;20963;-59
2023/02/21 05:02:05;;;;;;;9.17;8.17;;;10.70;99.90;;;;;;5073615;28;20951;-60
2023/02/21 05:04:33;;;;;;;8.13;7.33;;;10.70;99.90;;;;;;5073611;28;20982;-60
2023/02/21 05:07:01;;;;;;;9.80;8.47;;;10.70;99.90;;;;;;5073479;28;20947;-60
2023/02/21 05:09:27;;;;;;;8.67;7.67;;;10.70;99.90;;;;;;5073439;28;20933;-59
2023/02/21 05:11:54;;;;;;;8.80;7.90;;;10.70;99.90;;;;;;5073288;28;20487;-59
2023/02/21 05:14:21;;;;;;;9.50;7.97;;;10.70;99.90;;;;;;5073721;28;20858;-59
2023/02/21 05:16:47;;;;;;;9.20;8.00;;;10.70;99.90;;;;;;5073277;28;20950;-59
2023/02/21 05:19:25;;;;;;;11.20;8.03;;;10.70;99.90;;;;;;5073568;28;20546;-59
2023/02/21 05:21:54;;;;;;;10.13;8.57;;;10.60;99.90;;;;;;5073795;28;20447;-59
2023/02/21 05:24:21;;;;;;;11.50;9.73;;;10.50;99.90;;;;;;5073174;28;20482;-59
2023/02/21 05:26:47;;;;;;;10.90;9.30;;;10.50;99.90;;;;;;5073482;28;20487;-59
2023/02/21 05:29:14;;;;;;;15.07;9.57;;;10.50;99.90;;;;;;5073123;28;21009;-59
2023/02/21 05:31:40;;;;;;;13.70;10.43;;;10.50;99.90;;;;;;5073367;28;20451;-60
2023/02/21 05:34:07;;;;;;;12.30;9.00;;;10.40;99.90;;;;;;5073284;28;20852;-59
2023/02/21 05:36:34;;;;;;;11.47;10.27;;;10.50;99.90;;;;;;5073142;28;20455;-60
2023/02/21 05:39:02;;;;;;;10.87;9.30;;;10.40;99.90;;;;;;5073013;28;20487;-60
2023/02/21 05:41:28;;;;;;;11.87;10.63;;;10.40;99.90;;;;;;5073226;28;20951;-60
2023/02/21 05:43:55;;;;;;;12.57;9.53;;;10.40;99.90;;;;;;5073104;28;20506;-60
2023/02/21 05:46:24;;;;;;;12.77;10.17;;;10.40;99.90;;;;;;5073000;28;20522;-60
2023/02/21 05:48:52;;;;;;;12.90;10.00;;;10.40;99.90;;;;;;5072992;28;20444;-59
2023/02/21 05:51:19;;;;;;;12.30;10.27;;;10.30;99.90;;;;;;5072865;28;20511;-59
2023/02/21 05:53:46;;;;;;;13.80;9.30;;;10.30;99.90;;;;;;5072831;28;20451;-60
2023/02/21 05:56:15;;;;;;;13.80;10.40;;;10.30;99.90;;;;;;5072936;28;20534;-60
2023/02/21 05:58:42;;;;;;;15.13;10.63;;;10.30;99.90;;;;;;5073018;28;20487;-60
2023/02/21 06:01:08;;;;;;;10.10;8.60;;;10.30;99.90;;;;;;5072990;28;20479;-60
2023/02/21 06:03:35;;;;;;;12.23;10.00;;;10.30;99.90;;;;;;5072709;28;20539;-60
2023/02/21 06:06:02;;;;;;;11.30;9.60;;;10.30;99.90;;;;;;5072691;28;20491;-60
2023/02/21 06:08:28;;;;;;;12.70;9.87;;;10.30;99.90;;;;;;5072870;28;20505;-59
2023/02/21 06:10:55;;;;;;;10.10;9.00;;;10.30;99.90;;;;;;5072834;28;20488;-59
2023/02/21 06:13:23;;;;;;;11.37;10.17;;;10.30;99.90;;;;;;5072552;28;20483;-63
2023/02/21 06:15:50;;;;;;;12.50;9.80;;;10.30;99.90;;;;;;5072796;28;20451;-60
2023/02/21 06:18:17;;;;;;;10.00;8.97;;;10.30;99.90;;;;;;5072805;28;20851;-60
2023/02/21 06:20:44;;;;;;;12.77;9.60;;;10.20;99.90;;;;;;5072648;28;20451;-60
2023/02/21 06:23:11;;;;;;;11.27;8.43;;;10.30;99.90;;;;;;5072701;28;20555;-60
2023/02/21 06:25:37;;;;;;;10.37;8.50;;;10.30;99.90;;;;;;5072580;28;20935;-60
2023/02/21 06:28:04;;;;;;;10.77;9.53;;;10.30;99.90;;;;;;5073050;28;20501;-60
2023/02/21 06:30:32;;;;;;;10.80;9.07;;;10.30;99.90;;;;;;5076734;28;20479;-60
2023/02/21 06:32:59;;;;;;;11.63;9.53;;;10.30;99.90;;;;;;5076445;28;20532;-61
2023/02/21 06:35:25;;;;;;;11.53;9.30;;;10.30;99.90;;;;;;5076401;28;20943;-59
2023/02/21 06:37:52;;;;;;;11.00;8.67;;;10.30;99.90;;;;;;5076629;28;20479;-59
2023/02/21 06:40:19;;;;;;;11.17;8.30;;;10.20;99.90;;;;;;5076596;28;20491;-59
2023/02/21 06:42:45;;;;;;;11.10;8.20;;;10.20;99.90;;;;;;5076381;28;20489;-59
2023/02/21 06:45:12;;;;;;;9.50;7.90;;;10.20;99.90;;;;;;5076284;28;20446;-59
2023/02/21 06:47:40;;;;;;;9.53;8.10;;;10.30;99.90;;;;;;5076163;28;20481;-59
2023/02/21 06:50:07;;;;;;;9.40;7.90;;;10.30;99.90;;;;;;5076280;28;20489;-58
2023/02/21 06:52:33;;;;;;;8.37;7.23;;;10.30;99.90;;;;;;5076162;28;20473;-61
2023/02/21 06:55:00;;;;;;;8.80;7.90;;;10.30;99.90;;;;;;5076446;28;20544;-61
2023/02/21 06:57:26;;;;;;;11.47;8.40;;;10.30;99.90;;;;;;5075986;28;20535;-61
2023/02/21 06:59:53;;;;;;;10.03;8.43;;;10.30;99.90;;;;;;5075951;28;20487;-61
2023/02/21 07:02:20;;;;;;;8.90;7.50;;;10.30;99.90;;;;;;5075819;28;20542;-61
2023/02/21 07:04:48;;;;;;;8.87;7.90;;;10.30;99.90;;;;;;5075880;28;20676;-59
2023/02/21 07:07:15;;;;;;;9.33;7.80;;;10.30;99.90;;;;;;5075862;28;20482;-60
2023/02/21 07:09:42;;;;;;;7.43;6.50;;;10.40;99.90;;;;;;5075815;28;20447;-59
2023/02/21 07:12:09;;;;;;;7.70;6.90;;;10.40;99.90;;;;;;5075642;28;20511;-59
2023/02/21 07:14:36;;;;;;;8.47;6.37;;;10.40;99.90;;;;;;5075682;28;20448;-59
2023/02/21 07:17:02;;;;;;;8.10;6.93;;;10.40;99.90;;;;;;5075516;28;20799;-59
2023/02/21 07:19:29;;;;;;;8.00;6.97;;;10.40;99.90;;;;;;5075737;28;20448;-59
2023/02/21 07:21:56;;;;;;;6.87;6.20;;;10.40;99.90;;;;;;5075678;28;20447;-58
2023/02/21 07:24:23;;;;;;;7.80;6.67;;;10.40;99.90;;;;;;5075326;28;21007;-59
2023/02/21 07:26:50;;;;;;;8.10;6.57;;;10.50;99.90;;;;;;5075662;28;20535;-59
2023/02/21 07:29:17;;;;;;;7.33;5.73;;;10.40;99.90;;;;;;5075330;28;20854;-59
2023/02/21 07:31:43;;;;;;;7.13;6.43;;;10.40;99.90;;;;;;5075675;28;20484;-59
2023/02/21 07:34:11;;;;;;;7.63;6.47;;;10.40;99.90;;;;;;5075425;28;20444;-59
2023/02/21 07:36:38;;;;;;;9.27;5.80;;;10.40;99.90;;;;;;5075506;28;20846;-59
2023/02/21 07:39:06;;;;;;;7.10;5.60;;;10.30;99.90;;;;;;5075151;28;20455;-60
2023/02/21 07:41:32;;;;;;;5.13;4.63;;;10.40;99.90;;;;;;5075249;28;20448;-58
2023/02/21 07:43:59;;;;;;;5.43;4.80;;;10.30;99.90;;;;;;5075000;28;20454;-59
2023/02/21 07:46:27;;;;;;;4.10;3.80;;;10.30;99.90;;;;;;5075283;28;20514;-59
2023/02/21 07:48:54;;;;;;;4.67;3.87;;;10.30;99.90;;;;;;5075482;28;20456;-59
2023/02/21 07:51:20;;;;;;;4.70;4.30;;;10.40;99.90;;;;;;5075088;28;20480;-59
2023/02/21 07:53:47;;;;;;;4.40;4.00;;;10.30;99.90;;;;;;5074954;28;20448;-59
2023/02/21 07:56:15;;;;;;;5.53;5.00;;;10.40;99.90;;;;;;5074854;28;20444;-60
2023/02/21 07:58:42;;;;;;;4.53;4.13;;;10.40;99.90;;;;;;5074775;28;20490;-59
2023/02/21 08:01:09;;;;;;;5.43;4.47;;;10.50;99.90;;;;;;5074925;28;20784;-60
2023/02/21 08:03:36;;;;;;;6.53;4.00;;;10.40;99.90;;;;;;5074763;28;20505;-59
2023/02/21 08:06:04;;;;;;;4.60;4.20;;;10.50;99.90;;;;;;5074685;28;20530;-59
2023/02/21 08:08:30;;;;;;;11.93;10.43;;;10.60;99.90;;;;;;5074629;28;20448;-59
2023/02/21 08:10:57;;;;;;;6.63;3.70;;;10.60;99.90;;;;;;5074280;28;20514;-59
2023/02/21 08:13:25;;;;;;;3.30;3.00;;;10.60;99.90;;;;;;5074563;28;20511;-60
2023/02/21 08:15:51;;;;;;;3.83;3.00;;;10.60;99.90;;;;;;5074274;28;20595;-61
2023/02/21 08:18:22;;;;;;;3.10;2.90;;;10.70;99.90;;;;;;5074301;28;20452;-59
2023/02/21 08:20:49;;;;;;;2.60;2.40;;;10.70;99.90;;;;;;5074444;28;20447;-60
2023/02/21 08:23:17;;;;;;;3.10;2.67;;;10.70;99.90;;;;;;5073617;28;20456;-57
2023/02/21 08:25:43;;;;;;;3.10;2.90;;;10.80;99.90;;;;;;5072536;28;20448;-58
2023/02/21 08:28:10;;;;;;;2.63;2.43;;;10.80;99.90;;;;;;5073947;28;20444;-59
2023/02/21 08:30:38;;;;;;;3.10;2.37;;;10.80;99.90;;;;;;5073678;28;20577;-59
2023/02/21 08:33:05;;;;;;;2.73;2.23;;;10.80;99.90;;;;;;5073558;28;20943;-63
2023/02/21 08:35:31;;;;;;;2.70;2.50;;;10.90;99.90;;;;;;5073833;28;20448;-60
2023/02/21 08:38:01;;;;;;;2.80;2.60;;;10.90;99.90;;;;;;5073703;28;20447;-59
2023/02/21 08:40:29;;;;;;;3.77;2.70;;;10.80;99.90;;;;;;5073514;28;20455;-60
2023/02/21 08:42:56;;;;;;;2.70;2.07;;;10.90;99.90;;;;;;5074027;28;20555;-60
2023/02/21 08:45:24;;;;;;;2.00;1.90;;;11.00;99.90;;;;;;5073852;28;20482;-58
2023/02/21 08:47:54;;;;;;;2.03;1.67;;;11.00;99.90;;;;;;5073839;28;20886;-57
2023/02/21 08:50:22;;;;;;;1.80;1.70;;;11.10;99.90;;;;;;5073189;28;20532;-54
2023/02/21 08:52:49;;;;;;;2.00;1.90;;;11.10;99.90;;;;;;5073027;28;20460;-57
2023/02/21 08:55:18;;;;;;;1.40;1.30;;;11.10;99.90;;;;;;5073368;28;20455;-61
2023/02/21 08:57:45;;;;;;;1.70;1.60;;;11.10;99.90;;;;;;5073487;28;20478;-60
2023/02/21 09:00:15;;;;;;;1.57;1.33;;;11.20;99.90;;;;;;5073586;28;20451;-59
2023/02/21 09:02:42;;;;;;;1.60;1.50;;;11.20;99.90;;;;;;5073659;28;20478;-59
2023/02/21 09:05:12;;;;;;;1.60;1.20;;;11.20;99.90;;;;;;5073417;28;20547;-61
2023/02/21 09:07:39;;;;;;;1.83;1.20;;;11.30;99.90;;;;;;5073542;28;20931;-61
2023/02/21 09:10:08;;;;;;;1.30;1.20;;;11.20;99.90;;;;;;5072764;28;20450;-59
2023/02/21 09:12:35;;;;;;;1.50;1.33;;;11.30;99.90;;;;;;5072701;28;20498;-61
2023/02/21 09:15:02;;;;;;;1.90;1.73;;;11.30;99.90;;;;;;5072860;28;20472;-61
2023/02/21 09:17:32;;;;;;;3.77;3.43;;;11.30;99.90;;;;;;5073178;28;21008;-62
2023/02/21 09:19:59;;;;;;;1.33;1.13;;;11.40;99.90;;;;;;5073509;28;20887;-60
2023/02/21 09:22:27;;;;;;;1.00;0.90;;;11.40;99.90;;;;;;5073188;28;20484;-61
2023/02/21 09:24:53;;;;;;;1.53;1.30;;;11.50;99.90;;;;;;5072969;28;20548;-60
2023/02/21 09:27:35;;;;;;;1.30;1.20;;;11.60;99.90;;;;;;5073083;28;20447;-59
2023/02/21 09:30:02;;;;;;;2.53;0.97;;;11.50;99.90;;;;;;5073066;28;20476;-61
2023/02/21 09:32:29;;;;;;;7.23;1.50;;;11.40;99.90;;;;;;5072782;28;20507;-60
2023/02/21 09:34:56;;;;;;;1.67;1.17;;;11.40;99.90;;;;;;5073006;28;20854;-59
2023/02/21 09:37:22;;;;;;;1.13;1.03;;;11.40;99.90;;;;;;5072443;28;20497;-59
2023/02/21 09:39:50;;;;;;;1.20;1.10;;;11.50;99.90;;;;;;5072539;28;20454;-59
2023/02/21 09:42:18;;;;;;;1.17;1.00;;;11.50;99.90;;;;;;5072209;28;20596;-60
2023/02/21 09:44:46;;;;;;;5.70;1.47;;;11.50;99.90;;;;;;5069183;28;20489;-59
2023/02/21 09:47:19;;;;;;;4.30;2.00;;;11.50;99.90;;;;;;5071582;28;20477;-60
2023/02/21 09:49:47;;;;;;;1.73;1.20;;;11.60;99.90;;;;;;5070349;28;20451;-62
2023/02/21 09:52:22;;;;;;;2.43;1.53;;;11.60;99.90;;;;;;5073015;28;20480;-61
2023/02/21 09:54:54;;;;;;;1.37;1.00;;;11.70;99.90;;;;;;5073102;28;20545;-61
2023/02/21 09:57:21;;;;;;;4.03;1.23;;;11.70;99.90;;;;;;5072662;28;20447;-61
2023/02/21 09:59:48;;;;;;;1.10;1.00;;;11.80;99.90;;;;;;5072708;28;20505;-61
2023/02/21 10:02:37;;;;;;;3.97;1.20;;;11.80;99.90;;;;;;5072612;28;20948;-61
2023/02/21 10:05:16;;;;;;;3.90;1.30;;;11.90;99.90;;;;;;5072530;28;20854;-61
2023/02/21 10:07:49;;;;;;;5.30;1.30;;;11.70;99.90;;;;;;5072607;28;20538;-61
2023/02/21 10:10:22;;;;;;;1.77;1.20;;;11.80;99.90;;;;;;5072808;28;20448;-61
2023/02/21 10:12:55;;;;;;;2.53;1.57;;;11.80;99.90;;;;;;5072490;28;20492;-61
2023/02/21 10:15:42;;;;;;;1.20;1.07;;;11.80;99.90;;;;;;5072630;28;20448;-61
2023/02/21 10:18:21;;;;;;;2.07;1.10;;;11.80;99.90;;;;;;5072431;28;20501;-61
2023/02/21 10:20:51;;;;;;;2.33;1.00;;;11.80;99.90;;;;;;5072556;28;20859;-62
2023/02/21 10:23:21;;;;;;;1.47;1.10;;;11.90;99.90;;;;;;5072576;28;20527;-62
2023/02/21 10:25:54;;;;;;;1.83;1.23;;;11.80;99.90;;;;;;5071985;28;20479;-61
2023/02/21 10:28:22;;;;;;;1.57;1.30;;;11.90;99.90;;;;;;5072169;28;20523;-60
2023/02/21 10:30:51;;;;;;;2.83;1.00;;;11.90;99.90;;;;;;5071677;28;20479;-60
2023/02/21 10:33:18;;;;;;;2.97;1.10;;;11.90;99.90;;;;;;5072381;28;20462;-60
2023/02/21 10:35:44;;;;;;;3.37;1.30;;;11.90;99.90;;;;;;5072271;28;20803;-61
2023/02/21 10:38:14;;;;;;;2.40;1.00;;;12.00;99.90;;;;;;5072028;28;20474;-57
2023/02/21 10:40:43;;;;;;;4.27;1.10;;;12.00;99.90;;;;;;5072571;28;20479;-61
2023/02/21 10:43:16;;;;;;;2.50;1.33;;;11.90;99.90;;;;;;5071762;28;20450;-60
2023/02/21 10:45:47;;;;;;;4.50;1.20;;;12.00;99.90;;;;;;5071918;28;20447;-62
2023/02/21 10:48:15;;;;;;;1.67;1.20;;;12.00;99.90;;;;;;5071718;28;20444;-61
2023/02/21 10:50:48;;;;;;;2.63;1.10;;;12.10;99.90;;;;;;5071530;28;20532;-60
2023/02/21 10:53:25;;;;;;;4.53;1.20;;;12.00;99.90;;;;;;5071819;28;20466;-61
2023/02/21 10:56:08;;;;;;;2.73;1.30;;;11.90;99.90;;;;;;5069109;28;20540;-60
2023/02/21 10:58:36;;;;;;;4.20;1.30;;;11.90;99.90;;;;;;5069664;28;20456;-60
2023/02/21 11:01:12;;;;;;;5.43;1.17;;;12.00;99.90;;;;;;5072061;28;20515;-61
2023/02/21 11:03:43;;;;;;;5.53;1.40;;;12.10;99.90;;;;;;5071978;28;20479;-61
2023/02/21 11:06:20;;;;;;;3.63;1.30;;;12.00;99.90;;;;;;5072157;28;20458;-60
2023/02/21 11:08:47;;;;;;;3.03;1.20;;;12.00;99.90;;;;;;5072094;28;20449;-60
2023/02/21 11:11:14;;;;;;;3.58;1.48;;;12.10;99.90;;;;;;5070584;28;20464;-62
2023/02/21 11:13:43;;;;;;;4.70;1.50;;;12.10;99.90;;;;;;5071614;28;20663;-62
2023/02/21 11:16:14;;;;;;;2.70;1.43;;;12.20;99.90;;;;;;5075168;28;20526;-62
2023/02/21 11:18:41;;;;;;;7.03;1.20;;;12.10;99.90;;;;;;5075561;28;20987;-63
2023/02/21 11:21:12;;;;;;;3.63;1.20;;;12.20;99.90;;;;;;5075257;28;20902;-63
2023/02/21 11:23:45;;;;;;;8.07;1.47;;;12.20;99.90;;;;;;5075529;28;20196;-60
2023/02/21 11:26:12;;;;;;;2.70;1.33;;;12.20;99.90;;;;;;5075220;28;20534;-63
2023/02/21 11:28:43;;;;;;;5.10;1.30;;;12.30;99.90;;;;;;5075299;28;20448;-64
2023/02/21 11:31:17;;;;;;;6.20;1.80;;;12.30;99.90;;;;;;5074938;28;20475;-61
2023/02/21 11:33:55;;;;;;;5.33;1.37;;;12.20;99.90;;;;;;5075494;28;20451;-60
2023/02/21 11:36:28;;;;;;;5.60;1.30;;;12.20;99.90;;;;;;5075485;28;20483;-61
2023/02/21 11:39:06;;;;;;;4.23;1.30;;;12.10;99.90;;;;;;5075215;28;20449;-64
2023/02/21 11:41:37;;;;;;;5.90;1.63;;;12.10;99.90;;;;;;5074725;28;20456;-61
2023/02/21 11:44:24;;;;;;;3.33;1.37;;;12.10;99.90;;;;;;5075153;28;20997;-62
2023/02/21 11:46:55;;;;;;;4.30;1.20;;;12.20;99.90;;;;;;5074938;28;20488;-61
2023/02/21 11:49:33;;;;;;;3.70;1.10;;;12.10;99.90;;;;;;5074968;28;20876;-60
2023/02/21 11:52:02;;;;;;;3.83;1.40;;;12.10;99.90;;;;;;5075032;28;20490;-60
2023/02/21 11:54:30;;;;;;;4.30;1.33;;;12.00;99.90;;;;;;5074823;28;20860;-60
2023/02/21 11:57:03;;;;;;;3.70;1.20;;;12.00;99.90;;;;;;5074647;28;20878;-62
2023/02/21 11:59:39;;;;;;;8.70;2.57;;;11.90;99.90;;;;;;5072057;28;20453;-62
2023/02/21 12:02:26;;;;;;;3.90;1.40;;;11.90;99.90;;;;;;5074283;28;20484;-61
2023/02/21 12:05:03;;;;;;;9.93;3.20;;;11.80;99.90;;;;;;5072848;28;20479;-60
2023/02/21 12:07:35;;;;;;;8.47;2.60;;;11.80;99.90;;;;;;5074906;28;20483;-60
2023/02/21 12:10:11;;;;;;;6.20;1.80;;;11.80;99.90;;;;;;5074284;28;20981;-64
2023/02/21 12:12:45;;;;;;;8.90;1.97;;;11.80;99.90;;;;;;5072066;28;20475;-62
2023/02/21 12:15:24;;;;;;;9.43;2.00;;;11.80;99.90;;;;;;5071848;28;20459;-62
2023/02/21 12:18:17;;;;;;;6.70;1.60;;;11.80;99.90;;;;;;5071585;28;20783;-60
2023/02/21 12:20:57;;;;;;;5.83;1.80;;;11.90;99.90;;;;;;5074425;28;21059;-62
2023/02/21 12:23:32;;;;;;;9.87;2.03;;;11.90;99.90;;;;;;5073855;28;20792;-62
2023/02/21 12:26:18;;;;;;;14.83;2.57;;;11.80;99.90;;;;;;5073303;28;20543;-62
2023/02/21 12:28:58;;;;;;;4.10;1.30;;;11.80;99.90;;;;;;5074150;28;20448;-68
2023/02/21 12:31:39;;;;;;;4.40;1.60;;;11.90;99.90;;;;;;5073729;28;20444;-62
2023/02/21 12:34:21;;;;;;;5.10;1.33;;;12.00;99.90;;;;;;5073708;28;20995;-61
2023/02/21 12:37:05;;;;;;;3.60;1.50;;;11.80;99.90;;;;;;5073897;28;20476;-60
2023/02/21 12:39:44;;;;;;;10.80;1.73;;;11.90;99.90;;;;;;5074114;28;20973;-61
2023/02/21 12:42:27;;;;;;;8.77;1.87;;;11.90;99.90;;;;;;5074474;28;20451;-58
2023/02/21 12:45:03;;;;;;;6.63;1.70;;;11.90;99.90;;;;;;5074027;28;20456;-63
2023/02/21 12:47:38;;;;;;;5.70;1.73;;;11.90;99.90;;;;;;5073757;28;20473;-61
2023/02/21 12:50:11;;;;;;;5.30;2.07;;;12.00;99.90;;;;;;5073750;28;20452;-59
2023/02/21 12:52:44;;;;;;;9.27;2.20;;;12.00;99.90;;;;;;5074035;28;20479;-60
2023/02/21 12:55:18;;;;;;;3.60;1.80;;;12.00;99.90;;;;;;5073821;28;20476;-64
2023/02/21 12:57:50;;;;;;;5.43;1.63;;;12.10;99.90;;;;;;5073708;28;20483;-59
2023/02/21 13:00:21;;;;;;;7.60;1.77;;;12.10;99.90;;;;;;5073655;28;20484;-60
2023/02/21 13:03:01;;;;;;;4.37;2.00;;;12.20;99.90;;;;;;5073254;28;20448;-65
2023/02/21 13:05:36;;;;;;;3.17;1.30;;;12.30;99.90;;;;;;5073382;28;20887;-61
2023/02/21 13:08:07;;;;;;;6.50;2.40;;;12.40;99.90;;;;;;5073373;28;20454;-62
2023/02/21 13:10:42;;;;;;;6.83;2.20;;;12.30;99.90;;;;;;5073301;28;20880;-61
2023/02/21 13:13:13;;;;;;;10.70;2.80;;;12.20;99.90;;;;;;5072998;28;20581;-63
2023/02/21 13:15:42;;;;;;;5.33;1.60;;;12.10;99.90;;;;;;5073759;28;20862;-62
2023/02/21 13:18:16;;;;;;;5.47;1.70;;;12.10;99.90;;;;;;5073348;28;20507;-64
2023/02/21 13:20:47;;;;;;;5.63;2.03;;;12.10;99.90;;;;;;5073220;28;20448;-61
2023/02/21 13:26:33;;;;;;;5.60;2.27;;;12.10;99.90;;;;;;5073330;28;20443;-63
2023/02/21 13:29:00;;;;;;;9.95;2.05;;;12.20;99.90;;;;;;5072363;28;20529;-66
2023/02/21 13:31:33;;;;;;;10.93;2.27;;;12.20;99.90;;;;;;5072561;28;20269;-63
2023/02/21 13:34:02;;;;;;;4.77;1.63;;;12.10;99.90;;;;;;5073006;28;20501;-68
2023/02/21 13:36:31;;;;;;;63.90;47.00;;;12.10;99.90;;;;;;5072925;28;20481;-62
2023/02/21 13:39:02;;;;;;;10.60;3.70;;;12.10;99.90;;;;;;5069999;28;20880;-64
2023/02/21 13:41:30;;;;;;;5.65;2.03;;;12.10;99.90;;;;;;5071723;28;20458;-63
2023/02/21 13:43:58;;;;;;;4.40;1.23;;;12.10;99.90;;;;;;5070993;28;20197;-62
2023/02/21 13:46:41;;;;;;;6.55;1.75;;;12.10;99.90;;;;;;5072047;28;20467;-62
2023/02/21 13:49:43;;;;;;;4.40;1.77;;;12.20;99.90;;;;;;5072527;28;20277;-61
2023/02/21 13:52:34;;;;;;;4.47;1.57;;;12.20;99.90;;;;;;5052551;28;20978;-60
2023/02/21 13:55:31;;;;;;;5.70;2.27;;;12.20;99.90;;;;;;5052611;28;20467;-60
2023/02/21 13:58:37;;;;;;;6.30;1.87;;;12.20;99.90;;;;;;5052751;28;20449;-61
2023/02/21 14:01:21;;;;;;;7.20;1.97;;;12.20;99.90;;;;;;5050607;28;20554;-62
2023/02/21 14:03:48;;;;;;;8.90;1.63;;;12.20;99.90;;;;;;5068624;28;20444;-64
2023/02/21 14:06:36;;;;;;;7.22;2.50;;;12.20;99.90;;;;;;5071829;28;20450;-61
2023/02/21 14:09:13;;;;;;;6.90;1.97;;;12.10;99.90;;;;;;5072620;28;20284;-62
2023/02/21 14:11:47;;;;;;;6.70;1.67;;;12.20;99.90;;;;;;5072126;28;20835;-61
2023/02/21 14:14:23;;;;;;;7.90;2.10;;;12.20;99.90;;;;;;5072681;28;20456;-61
2023/02/21 14:16:53;;;;;;;4.53;2.20;;;12.20;99.90;;;;;;5072759;28;20193;-60
2023/02/21 14:19:25;;;;;;;6.17;1.43;;;12.30;99.90;;;;;;5072525;28;20457;-59
2023/02/21 14:22:01;;;;;;;7.53;2.43;;;12.30;99.90;;;;;;5071549;28;20468;-60
2023/02/21 14:24:30;;;;;;;7.07;2.20;;;12.30;99.90;;;;;;5072618;28;20445;-63
2023/02/21 14:27:02;;;;;;;7.27;1.87;;;12.30;99.90;;;;;;5072606;28;20450;-64
2023/02/21 14:29:37;;;;;;;10.18;2.58;;;12.30;99.90;;;;;;5071400;28;20531;-60
2023/02/21 14:32:36;;;;;;;11.17;2.17;;;12.30;99.90;;;;;;5072252;28;20217;-61
2023/02/21 14:35:17;;;;;;;14.90;3.10;;;12.20;99.90;;;;;;5067312;28;20861;-61
2023/02/21 14:37:54;;;;;;;7.07;2.00;;;12.30;99.90;;;;;;5072119;28;20521;-59
2023/02/21 14:40:33;;;;;;;7.10;2.37;;;12.20;99.90;;;;;;5072241;28;20526;-61
2023/02/21 14:43:22;;;;;;;7.03;1.90;;;12.20;99.90;;;;;;5071357;28;20560;-65
2023/02/21 14:46:02;;;;;;;6.77;2.17;;;12.10;99.90;;;;;;5072564;28;20479;-61
2023/02/21 14:49:04;;;;;;;11.37;4.63;;;12.10;99.90;;;;;;5071846;28;20447;-64
2023/02/21 14:51:54;;;;;;;10.20;2.17;;;12.00;99.90;;;;;;5076265;28;20455;-59
2023/02/21 14:54:56;;;;;;;3.17;1.97;;;12.00;99.90;;;;;;5076256;28;20459;-60
2023/02/21 14:57:38;;;;;;;9.73;2.40;;;12.00;99.90;;;;;;5075897;28;20859;-60
2023/02/21 15:00:20;;;;;;;8.80;2.03;;;12.00;99.90;;;;;;5076113;28;20451;-63
2023/02/21 15:02:53;;;;;;;9.33;2.27;;;12.00;99.90;;;;;;5075587;28;20491;-62
2023/02/21 15:05:25;;;;;;;5.17;2.23;;;11.90;99.90;;;;;;5075811;28;20516;-61
2023/02/21 15:07:59;;;;;;;9.40;2.67;;;11.90;99.90;;;;;;5075563;28;20807;-62
2023/02/21 15:10:28;;;;;;;12.13;3.03;;;11.90;99.90;;;;;;5075787;28;20452;-61
2023/02/21 15:12:56;;;;;;;6.10;1.73;;;12.00;99.90;;;;;;5075114;28;20503;-62
2023/02/21 15:15:27;;;;;;;7.07;1.63;;;12.00;99.90;;;;;;5075035;28;20542;-62
2023/02/21 15:18:02;;;;;;;9.43;2.27;;;12.00;99.90;;;;;;5075681;28;20801;-61
2023/02/21 15:20:30;;;;;;;12.52;3.15;;;11.90;99.90;;;;;;5074734;28;20914;-61
2023/02/21 15:23:00;;;;;;;13.63;2.93;;;11.90;99.90;;;;;;5075736;28;20195;-62
2023/02/21 15:25:28;;;;;;;6.03;2.17;;;12.00;99.90;;;;;;5075729;28;20765;-62